createdAt,value
2022-08-16T00:03:42.169Z,97173.50
2022-08-16T00:13:54.222Z,97176.22
2022-08-16T00:23:58.864Z,97178.50
2022-08-16T00:34:01.735Z,97174.13
2022-08-16T00:44:11.419Z,97175.41
2022-08-16T00:54:14.953Z,97160.31
2022-08-16T01:04:30.600Z,97156.75
2022-08-16T01:14:38.572Z,97168.13
2022-08-16T01:24:53.626Z,97164.56
2022-08-16T01:34:58.449Z,97164.34
2022-08-16T01:45:01.178Z,97164.94
2022-08-16T01:55:05.935Z,97158.16
2022-08-16T02:05:09.350Z,97168.53
2022-08-16T02:15:14.651Z,97176.84
2022-08-16T02:25:17.883Z,97179.34
2022-08-16T02:35:23.246Z,97180.22
2022-08-16T02:45:28.607Z,97174.22
2022-08-16T02:55:41.290Z,97174.34
2022-08-16T03:05:43.990Z,97164.91
2022-08-16T03:15:52.728Z,97160.19
2022-08-16T03:25:55.841Z,97149.75
2022-08-16T03:36:29.899Z,97144.19
2022-08-16T03:46:47.625Z,97141.09
2022-08-16T03:56:57.716Z,97133.88
2022-08-16T04:07:05.786Z,97135.09
2022-08-16T04:17:10.355Z,97134.63
2022-08-16T04:27:12.860Z,97135.03
2022-08-16T04:37:16.078Z,97130.69
2022-08-16T04:47:21.707Z,97130.22
2022-08-16T04:57:30.211Z,97132.94
2022-08-16T05:07:33.201Z,97138.84
2022-08-16T05:17:37.283Z,97137.94
2022-08-16T05:27:43.319Z,97144.44
2022-08-16T05:37:47.881Z,97143.87
2022-08-16T05:58:33.275Z,97162.47
2022-08-16T06:08:44.777Z,97170.16
2022-08-16T06:18:50.645Z,97167.06
2022-08-16T06:29:04.452Z,97176.72
2022-08-16T06:50:41.553Z,97173.72
2022-08-16T07:11:47.283Z,97169.56
2022-08-16T07:21:54.341Z,97180.22
2022-08-16T07:44:02.197Z,97182.34
2022-08-16T07:54:32.239Z,97179.53
2022-08-16T08:04:50.049Z,97191.22
2022-08-16T08:15:14.286Z,97188.25
2022-08-16T08:59:42.886Z,97235.44
2022-08-16T09:32:08.035Z,97225.78
2022-08-16T09:42:12.337Z,97218.94
2022-08-16T09:52:18.325Z,97220.31
2022-08-16T10:13:20.833Z,97219.81
2022-08-16T10:23:26.122Z,97216.44
2022-08-16T10:33:34.366Z,97210.87
2022-08-16T10:43:38.365Z,97207.06
2022-08-16T10:53:45.546Z,97201.56
2022-08-16T11:15:24.616Z,97198.63
2022-08-16T11:46:43.090Z,97185.59
2022-08-16T11:56:56.609Z,97172.47
2022-08-16T12:07:06.665Z,97167.16
2022-08-16T12:17:23.427Z,97173.34
2022-08-16T12:27:45.283Z,97167.16
2022-08-16T12:38:41.008Z,97155.22
2022-08-16T12:48:59.304Z,97156.84
2022-08-16T12:59:20.252Z,97153.62
2022-08-16T13:09:28.876Z,97139.50
2022-08-16T13:30:21.902Z,97131.44
2022-08-16T13:40:32.578Z,97128.66
2022-08-16T13:50:51.611Z,97118.69
2022-08-16T14:00:58.227Z,97113.97
2022-08-16T14:11:05.711Z,97104.91
2022-08-16T14:21:15.517Z,97100.13
2022-08-16T14:31:24.492Z,97088.63
2022-08-16T14:41:28.867Z,97085.16
2022-08-16T14:51:31.781Z,97079.28
2022-08-16T15:01:57.654Z,97070.62
2022-08-16T15:12:26.541Z,97057.09
2022-08-16T15:22:39.858Z,97045.00
2022-08-16T15:32:43.954Z,97028.63
2022-08-16T15:42:54.044Z,97027.66
2022-08-16T15:53:02.413Z,97018.91
2022-08-16T16:03:11.103Z,97018.28
2022-08-16T16:13:23.507Z,97016.38
2022-08-16T16:23:34.135Z,97030.03
2022-08-16T16:33:40.116Z,97015.88
2022-08-16T16:43:45.216Z,97008.75
2022-08-16T16:53:56.311Z,96995.28
2022-08-16T17:04:13.141Z,96991.37
2022-08-16T17:14:33.253Z,96990.37
2022-08-16T17:24:39.622Z,96978.56
2022-08-16T17:34:46.585Z,96972.53
2022-08-16T17:44:54.634Z,96965.06
2022-08-16T17:54:58.702Z,96973.28
2022-08-16T18:05:01.804Z,96971.09
2022-08-16T18:15:09.020Z,96973.50
2022-08-16T18:25:11.731Z,96977.47
2022-08-16T18:35:15.912Z,96976.63
2022-08-16T18:45:19.117Z,96970.19
2022-08-16T18:55:24.440Z,96971.69
2022-08-16T19:05:30.191Z,96971.53
2022-08-16T19:15:33.038Z,96995.69
2022-08-16T19:25:46.198Z,97012.38
2022-08-16T19:35:50.365Z,97020.09
2022-08-16T19:45:54.050Z,97031.41
2022-08-16T19:55:56.709Z,97026.28
2022-08-16T20:06:00.038Z,97031.13
2022-08-16T20:16:02.822Z,97040.72
2022-08-16T20:26:05.428Z,97027.03
2022-08-16T20:36:08.690Z,97036.09
2022-08-16T20:46:13.734Z,97042.19
2022-08-16T20:56:16.315Z,97067.03
2022-08-16T21:06:19.300Z,97062.66
2022-08-16T21:16:22.177Z,97063.72
2022-08-16T21:26:25.021Z,97063.81
2022-08-16T21:36:35.334Z,97070.34
2022-08-16T21:46:38.711Z,97092.56
2022-08-16T21:56:41.409Z,97080.16
2022-08-16T22:06:44.351Z,97081.41
2022-08-16T22:16:48.101Z,97070.59
2022-08-16T22:26:50.719Z,97067.00
2022-08-16T22:36:54.125Z,97065.53
2022-08-16T22:46:56.930Z,97056.84
2022-08-16T22:56:59.912Z,97067.41
2022-08-16T23:07:02.870Z,97080.66
2022-08-16T23:17:08.320Z,97071.78
2022-08-16T23:27:11.240Z,97078.53
2022-08-16T23:37:13.597Z,97172.31
2022-08-16T23:47:16.517Z,97159.72
2022-08-16T23:57:20.589Z,97175.91
